sensor_id;sensor_type;location;lat;lon;timestamp;pressure;altitude;pressure_sealevel;temperature;humidity
19845;BME280;10083;51.038;7.012;2022-10-31T00:00:29;104360.53;;;11.90;75.99
19845;BME280;10083;51.038;7.012;2022-10-31T00:02:56;104203.78;;;11.87;75.98
19845;BME280;10083;51.038;7.012;2022-10-31T00:05:28;104315.31;;;11.74;75.98
19845;BME280;10083;51.038;7.012;2022-10-31T00:07:57;104256.22;;;11.74;75.98
19845;BME280;10083;51.038;7.012;2022-10-31T00:10:43;104158.94;;;11.84;75.99
19845;BME280;10083;51.038;7.012;2022-10-31T00:13:13;104037.97;;;11.79;75.99
19845;BME280;10083;51.038;7.012;2022-10-31T00:15:41;104026.19;;;11.73;75.99
19845;BME280;10083;51.038;7.012;2022-10-31T00:18:13;104132.47;;;11.66;75.98
19845;BME280;10083;51.038;7.012;2022-10-31T00:20:40;104078.81;;;11.68;75.98
19845;BME280;10083;51.038;7.012;2022-10-31T00:23:16;104214.81;;;11.66;75.98
19845;BME280;10083;51.038;7.012;2022-10-31T00:25:43;104081.56;;;11.69;75.97
19845;BME280;10083;51.038;7.012;2022-10-31T00:28:16;104035.00;;;11.69;75.97
19845;BME280;10083;51.038;7.012;2022-10-31T00:30:43;104088.34;;;11.55;75.97
19845;BME280;10083;51.038;7.012;2022-10-31T00:33:16;103763.13;;;11.76;75.98
19845;BME280;10083;51.038;7.012;2022-10-31T00:35:49;103753.25;;;11.75;75.98
19845;BME280;10083;51.038;7.012;2022-10-31T00:38:20;103550.34;;;11.88;75.99
19845;BME280;10083;51.038;7.012;2022-10-31T00:40:47;103525.94;;;11.74;75.98
19845;BME280;10083;51.038;7.012;2022-10-31T00:43:16;103246.91;;;11.86;76.00
19845;BME280;10083;51.038;7.012;2022-10-31T00:45:43;103269.22;;;11.82;75.98
19845;BME280;10083;51.038;7.012;2022-10-31T00:48:17;103319.34;;;11.82;75.98
19845;BME280;10083;51.038;7.012;2022-10-31T00:50:45;103183.38;;;11.87;75.99
19845;BME280;10083;51.038;7.012;2022-10-31T00:53:27;103239.75;;;11.88;76.01
19845;BME280;10083;51.038;7.012;2022-10-31T00:55:54;103084.97;;;11.92;76.00
19845;BME280;10083;51.038;7.012;2022-10-31T00:58:23;103025.00;;;11.97;76.01
19845;BME280;10083;51.038;7.012;2022-10-31T01:00:51;102967.75;;;11.98;76.01
19845;BME280;10083;51.038;7.012;2022-10-31T01:03:23;102508.56;;;12.18;76.04
19845;BME280;10083;51.038;7.012;2022-10-31T01:05:58;102360.81;;;12.21;76.02
19845;BME280;10083;51.038;7.012;2022-10-31T01:08:26;102436.03;;;12.22;76.03
19845;BME280;10083;51.038;7.012;2022-10-31T01:11:06;102563.19;;;12.12;76.01
19845;BME280;10083;51.038;7.012;2022-10-31T01:13:38;102554.22;;;12.10;76.02
19845;BME280;10083;51.038;7.012;2022-10-31T01:16:07;102590.94;;;12.04;76.01
19845;BME280;10083;51.038;7.012;2022-10-31T01:18:38;102496.06;;;12.05;76.01
19845;BME280;10083;51.038;7.012;2022-10-31T01:21:08;102573.00;;;12.06;76.00
19845;BME280;10083;51.038;7.012;2022-10-31T01:23:36;103046.50;;;11.97;76.01
19845;BME280;10083;51.038;7.012;2022-10-31T01:26:07;103086.78;;;11.97;76.00
19845;BME280;10083;51.038;7.012;2022-10-31T01:28:42;103225.47;;;11.91;76.01
19845;BME280;10083;51.038;7.012;2022-10-31T01:31:10;103322.00;;;11.78;75.99
19845;BME280;10083;51.038;7.012;2022-10-31T01:33:50;103311.22;;;11.77;76.00
19845;BME280;10083;51.038;7.012;2022-10-31T01:36:20;103180.53;;;11.73;75.99
19845;BME280;10083;51.038;7.012;2022-10-31T01:38:50;103217.13;;;11.71;75.99
19845;BME280;10083;51.038;7.012;2022-10-31T01:41:28;103163.59;;;11.78;76.00
19845;BME280;10083;51.038;7.012;2022-10-31T01:43:59;103130.41;;;11.75;75.98
19845;BME280;10083;51.038;7.012;2022-10-31T01:46:31;103114.22;;;11.70;75.97
19845;BME280;10083;51.038;7.012;2022-10-31T01:49:04;103286.94;;;11.69;75.97
19845;BME280;10083;51.038;7.012;2022-10-31T01:51:35;103225.31;;;11.77;75.99
19845;BME280;10083;51.038;7.012;2022-10-31T01:54:06;103406.88;;;11.72;75.99
19845;BME280;10083;51.038;7.012;2022-10-31T01:56:48;103703.84;;;11.65;75.98
19845;BME280;10083;51.038;7.012;2022-10-31T01:59:19;103672.41;;;11.60;75.98
19845;BME280;10083;51.038;7.012;2022-10-31T02:01:50;103722.59;;;11.64;75.97
19845;BME280;10083;51.038;7.012;2022-10-31T02:04:19;103713.56;;;11.62;75.98
19845;BME280;10083;51.038;7.012;2022-10-31T02:06:51;103835.97;;;11.54;75.97
19845;BME280;10083;51.038;7.012;2022-10-31T02:09:23;103927.06;;;11.46;75.95
19845;BME280;10083;51.038;7.012;2022-10-31T02:11:56;103933.19;;;11.41;75.97
19845;BME280;10083;51.038;7.012;2022-10-31T02:14:29;103832.22;;;11.44;75.96
19845;BME280;10083;51.038;7.012;2022-10-31T02:16:57;103841.94;;;11.41;75.97
19845;BME280;10083;51.038;7.012;2022-10-31T02:19:31;104004.59;;;11.34;75.94
19845;BME280;10083;51.038;7.012;2022-10-31T02:22:05;104112.59;;;11.27;75.94
19845;BME280;10083;51.038;7.012;2022-10-31T02:24:46;104188.41;;;11.20;75.94
19845;BME280;10083;51.038;7.012;2022-10-31T02:27:57;104540.69;;;11.17;75.94
19845;BME280;10083;51.038;7.012;2022-10-31T02:30:37;104492.16;;;11.11;75.94
19845;BME280;10083;51.038;7.012;2022-10-31T02:33:18;104450.16;;;11.12;75.93
19845;BME280;10083;51.038;7.012;2022-10-31T02:36:03;104668.13;;;11.06;75.93
19845;BME280;10083;51.038;7.012;2022-10-31T02:38:41;104644.16;;;11.11;75.93
19845;BME280;10083;51.038;7.012;2022-10-31T02:41:19;104513.72;;;11.14;75.94
19845;BME280;10083;51.038;7.012;2022-10-31T02:44:02;104276.16;;;11.22;75.95
19845;BME280;10083;51.038;7.012;2022-10-31T02:47:01;104514.53;;;11.12;75.94
19845;BME280;10083;51.038;7.012;2022-10-31T02:49:36;104266.28;;;11.21;75.95
19845;BME280;10083;51.038;7.012;2022-10-31T02:52:21;104331.88;;;11.31;75.95
19845;BME280;10083;51.038;7.012;2022-10-31T02:54:50;104344.31;;;11.29;75.95
19845;BME280;10083;51.038;7.012;2022-10-31T02:57:27;104574.84;;;11.23;75.95
19845;BME280;10083;51.038;7.012;2022-10-31T02:59:58;104775.78;;;11.15;75.93
19845;BME280;10083;51.038;7.012;2022-10-31T03:02:43;105005.16;;;11.04;75.93
19845;BME280;10083;51.038;7.012;2022-10-31T03:08:12;117989.81;;;11.01;76.41
19845;BME280;10083;51.038;7.012;2022-10-31T03:10:45;117652.41;;;11.11;76.36
19845;BME280;10083;51.038;7.012;2022-10-31T03:13:22;117151.47;;;11.24;76.33
19845;BME280;10083;51.038;7.012;2022-10-31T03:16:04;116779.41;;;11.25;76.32
19845;BME280;10083;51.038;7.012;2022-10-31T03:18:34;116339.75;;;11.29;76.31
19845;BME280;10083;51.038;7.012;2022-10-31T03:21:10;116083.75;;;11.27;76.30
19845;BME280;10083;51.038;7.012;2022-10-31T03:23:40;115947.91;;;11.25;76.28
19845;BME280;10083;51.038;7.012;2022-10-31T03:26:18;115180.78;;;11.24;76.30
19845;BME280;10083;51.038;7.012;2022-10-31T03:28:54;115041.03;;;11.16;76.28
19845;BME280;10083;51.038;7.012;2022-10-31T03:31:27;114788.38;;;11.08;76.28
19845;BME280;10083;51.038;7.012;2022-10-31T03:34:05;114631.56;;;10.99;76.28
19845;BME280;10083;51.038;7.012;2022-10-31T03:36:38;114484.97;;;11.01;76.28
19845;BME280;10083;51.038;7.012;2022-10-31T03:39:10;114301.06;;;11.05;76.26
19845;BME280;10083;51.038;7.012;2022-10-31T03:41:59;114113.84;;;11.05;76.24
19845;BME280;10083;51.038;7.012;2022-10-31T03:44:29;114006.91;;;11.08;76.25
19845;BME280;10083;51.038;7.012;2022-10-31T03:47:01;114011.72;;;11.15;76.24
19845;BME280;10083;51.038;7.012;2022-10-31T03:49:30;114071.28;;;11.12;76.23
19845;BME280;10083;51.038;7.012;2022-10-31T03:52:14;113998.22;;;11.05;76.22
19845;BME280;10083;51.038;7.012;2022-10-31T03:54:46;113849.66;;;11.06;76.22
19845;BME280;10083;51.038;7.012;2022-10-31T03:57:21;113814.00;;;11.07;76.23
19845;BME280;10083;51.038;7.012;2022-10-31T03:59:55;113798.16;;;10.99;76.21
19845;BME280;10083;51.038;7.012;2022-10-31T04:02:30;113700.94;;;11.02;76.22
19845;BME280;10083;51.038;7.012;2022-10-31T04:05:04;113733.22;;;11.02;76.21
19845;BME280;10083;51.038;7.012;2022-10-31T04:07:37;113687.25;;;11.00;76.19
19845;BME280;10083;51.038;7.012;2022-10-31T04:10:10;113598.81;;;11.02;76.19
19845;BME280;10083;51.038;7.012;2022-10-31T04:12:42;113610.25;;;11.10;76.20
19845;BME280;10083;51.038;7.012;2022-10-31T04:15:31;113533.56;;;11.12;76.19
19845;BME280;10083;51.038;7.012;2022-10-31T04:18:02;113559.41;;;11.21;76.20
19845;BME280;10083;51.038;7.012;2022-10-31T04:20:32;113491.63;;;11.18;76.17
19845;BME280;10083;51.038;7.012;2022-10-31T04:23:03;113405.69;;;11.24;76.17
19845;BME280;10083;51.038;7.012;2022-10-31T04:25:30;113483.69;;;11.24;76.17
19845;BME280;10083;51.038;7.012;2022-10-31T04:28:11;113401.31;;;11.24;76.16
19845;BME280;10083;51.038;7.012;2022-10-31T04:30:38;113458.47;;;11.23;76.17
19845;BME280;10083;51.038;7.012;2022-10-31T04:33:10;113363.84;;;11.20;76.17
19845;BME280;10083;51.038;7.012;2022-10-31T04:35:38;113354.59;;;11.09;76.15
19845;BME280;10083;51.038;7.012;2022-10-31T04:38:10;113299.25;;;11.05;76.16
19845;BME280;10083;51.038;7.012;2022-10-31T04:40:39;113110.56;;;11.17;76.14
19845;BME280;10083;51.038;7.012;2022-10-31T04:43:29;113278.78;;;11.21;76.15
19845;BME280;10083;51.038;7.012;2022-10-31T04:46:00;113318.13;;;11.20;76.14
19845;BME280;10083;51.038;7.012;2022-10-31T04:48:28;113274.22;;;11.25;76.14
19845;BME280;10083;51.038;7.012;2022-10-31T04:51:04;113221.34;;;11.20;76.14
19845;BME280;10083;51.038;7.012;2022-10-31T04:53:33;113262.56;;;11.15;76.13
19845;BME280;10083;51.038;7.012;2022-10-31T04:56:26;113244.81;;;11.06;76.13
19845;BME280;10083;51.038;7.012;2022-10-31T04:59:03;113300.06;;;10.95;76.12
19845;BME280;10083;51.038;7.012;2022-10-31T05:01:42;113355.00;;;11.06;76.13
19845;BME280;10083;51.038;7.012;2022-10-31T05:04:10;113447.94;;;11.10;76.12
19845;BME280;10083;51.038;7.012;2022-10-31T05:06:37;113507.91;;;11.14;76.13
19845;BME280;10083;51.038;7.012;2022-10-31T05:09:09;113470.84;;;11.17;76.11
19845;BME280;10083;51.038;7.012;2022-10-31T05:11:37;113596.09;;;11.11;76.11
19845;BME280;10083;51.038;7.012;2022-10-31T05:14:23;113508.06;;;11.10;76.11
19845;BME280;10083;51.038;7.012;2022-10-31T05:17:09;113496.75;;;11.17;76.11
19845;BME280;10083;51.038;7.012;2022-10-31T05:20:04;113342.31;;;11.20;76.12
19845;BME280;10083;51.038;7.012;2022-10-31T05:23:00;113374.41;;;11.24;76.11
19845;BME280;10083;51.038;7.012;2022-10-31T05:25:34;113512.59;;;11.15;76.11
19845;BME280;10083;51.038;7.012;2022-10-31T05:28:03;113390.91;;;11.16;76.11
19845;BME280;10083;51.038;7.012;2022-10-31T05:30:42;113428.00;;;11.13;76.10
19845;BME280;10083;51.038;7.012;2022-10-31T05:33:12;113474.13;;;11.11;76.10
19845;BME280;10083;51.038;7.012;2022-10-31T05:36:01;113462.66;;;11.12;76.10
19845;BME280;10083;51.038;7.012;2022-10-31T05:38:32;113440.69;;;11.14;76.11
19845;BME280;10083;51.038;7.012;2022-10-31T05:41:10;113374.22;;;11.13;76.10
19845;BME280;10083;51.038;7.012;2022-10-31T05:43:41;113507.41;;;11.02;76.10
19845;BME280;10083;51.038;7.012;2022-10-31T05:46:09;113425.78;;;11.01;76.09
19845;BME280;10083;51.038;7.012;2022-10-31T05:48:57;113589.94;;;10.87;76.08
19845;BME280;10083;51.038;7.012;2022-10-31T05:51:42;113362.47;;;10.88;76.08
19845;BME280;10083;51.038;7.012;2022-10-31T05:54:20;113533.09;;;10.71;76.08
19845;BME280;10083;51.038;7.012;2022-10-31T05:56:49;113536.69;;;10.66;76.07
19845;BME280;10083;51.038;7.012;2022-10-31T05:59:34;113534.94;;;10.66;76.06
19845;BME280;10083;51.038;7.012;2022-10-31T06:02:01;113682.47;;;10.65;76.06
19845;BME280;10083;51.038;7.012;2022-10-31T06:04:50;113700.41;;;10.60;76.06
19845;BME280;10083;51.038;7.012;2022-10-31T06:07:18;113642.16;;;10.55;76.05
19845;BME280;10083;51.038;7.012;2022-10-31T06:09:56;113828.63;;;10.52;76.04
19845;BME280;10083;51.038;7.012;2022-10-31T06:12:25;113785.91;;;10.53;76.04
19845;BME280;10083;51.038;7.012;2022-10-31T06:15:30;113756.78;;;10.51;76.05
19845;BME280;10083;51.038;7.012;2022-10-31T06:18:02;113946.13;;;10.53;76.03
19845;BME280;10083;51.038;7.012;2022-10-31T06:20:41;113963.56;;;10.41;76.02
19845;BME280;10083;51.038;7.012;2022-10-31T06:23:10;113879.19;;;10.44;76.04
19845;BME280;10083;51.038;7.012;2022-10-31T06:25:38;113755.41;;;10.53;76.03
19845;BME280;10083;51.038;7.012;2022-10-31T06:28:09;113888.28;;;10.55;76.04
19845;BME280;10083;51.038;7.012;2022-10-31T06:31:00;113905.31;;;10.69;76.05
19845;BME280;10083;51.038;7.012;2022-10-31T06:33:27;113815.63;;;10.59;76.04
19845;BME280;10083;51.038;7.012;2022-10-31T06:36:08;113933.56;;;10.57;76.04
19845;BME280;10083;51.038;7.012;2022-10-31T06:38:36;113927.34;;;10.62;76.04
19845;BME280;10083;51.038;7.012;2022-10-31T06:41:07;114083.78;;;10.65;76.04
19845;BME280;10083;51.038;7.012;2022-10-31T06:43:46;114157.31;;;10.66;76.03
19845;BME280;10083;51.038;7.012;2022-10-31T06:46:33;114105.78;;;10.82;76.05
19845;BME280;10083;51.038;7.012;2022-10-31T06:49:22;114134.16;;;10.76;76.05
19845;BME280;10083;51.038;7.012;2022-10-31T06:51:57;114157.78;;;10.73;76.05
19845;BME280;10083;51.038;7.012;2022-10-31T06:54:24;114064.19;;;10.80;76.05
19845;BME280;10083;51.038;7.012;2022-10-31T06:56:57;114130.97;;;10.82;76.05
19845;BME280;10083;51.038;7.012;2022-10-31T06:59:26;114162.00;;;10.90;76.07
19845;BME280;10083;51.038;7.012;2022-10-31T07:02:01;113979.41;;;10.96;76.05
19845;BME280;10083;51.038;7.012;2022-10-31T07:04:30;113988.91;;;11.03;76.08
19845;BME280;10083;51.038;7.012;2022-10-31T07:07:00;114101.25;;;11.10;76.08
19845;BME280;10083;51.038;7.012;2022-10-31T07:09:27;113907.56;;;11.23;76.08
19845;BME280;10083;51.038;7.012;2022-10-31T07:11:56;114066.97;;;11.32;76.08
19845;BME280;10083;51.038;7.012;2022-10-31T07:14:23;114036.28;;;11.45;76.09
19845;BME280;10083;51.038;7.012;2022-10-31T07:16:54;114089.56;;;11.52;76.11
19845;BME280;10083;51.038;7.012;2022-10-31T07:19:41;113987.03;;;11.60;76.10
19845;BME280;10083;51.038;7.012;2022-10-31T07:22:09;114028.13;;;11.68;76.11
19845;BME280;10083;51.038;7.012;2022-10-31T07:24:38;114094.19;;;11.76;76.11
19845;BME280;10083;51.038;7.012;2022-10-31T07:27:50;113995.03;;;11.83;76.12
19845;BME280;10083;51.038;7.012;2022-10-31T07:30:18;114017.00;;;11.90;76.13
19845;BME280;10083;51.038;7.012;2022-10-31T07:32:54;113927.84;;;11.98;76.13
19845;BME280;10083;51.038;7.012;2022-10-31T07:35:24;113966.69;;;12.04;76.15
19845;BME280;10083;51.038;7.012;2022-10-31T07:38:07;113927.13;;;12.09;76.15
19845;BME280;10083;51.038;7.012;2022-10-31T07:40:49;113903.97;;;12.15;76.15
19845;BME280;10083;51.038;7.012;2022-10-31T07:43:16;114002.22;;;12.17;76.15
19845;BME280;10083;51.038;7.012;2022-10-31T07:46:04;113855.47;;;12.24;76.17
19845;BME280;10083;51.038;7.012;2022-10-31T07:49:00;113671.34;;;12.39;76.18
19845;BME280;10083;51.038;7.012;2022-10-31T07:51:50;113918.03;;;12.52;76.19
19845;BME280;10083;51.038;7.012;2022-10-31T07:54:24;113973.31;;;12.60;76.18
19845;BME280;10083;51.038;7.012;2022-10-31T07:56:53;113837.50;;;12.69;76.20
19845;BME280;10083;51.038;7.012;2022-10-31T07:59:24;113685.19;;;12.77;76.21
19845;BME280;10083;51.038;7.012;2022-10-31T08:01:53;113758.81;;;12.81;76.21
19845;BME280;10083;51.038;7.012;2022-10-31T08:04:54;113499.88;;;12.91;76.23
19845;BME280;10083;51.038;7.012;2022-10-31T08:07:40;113535.44;;;12.94;76.22
19845;BME280;10083;51.038;7.012;2022-10-31T08:10:15;113413.66;;;12.96;76.23
19845;BME280;10083;51.038;7.012;2022-10-31T08:12:44;113320.50;;;12.98;76.23
19845;BME280;10083;51.038;7.012;2022-10-31T08:15:12;113307.50;;;12.96;76.22
19845;BME280;10083;51.038;7.012;2022-10-31T08:17:39;113349.41;;;12.94;76.22
19845;BME280;10083;51.038;7.012;2022-10-31T08:20:12;113300.34;;;12.91;76.23
19845;BME280;10083;51.038;7.012;2022-10-31T08:23:04;113175.84;;;12.93;76.23
19845;BME280;10083;51.038;7.012;2022-10-31T08:25:34;113230.03;;;12.95;76.23
19845;BME280;10083;51.038;7.012;2022-10-31T08:28:06;113384.31;;;13.03;76.23
19845;BME280;10083;51.038;7.012;2022-10-31T08:30:36;113322.56;;;13.05;76.24
19845;BME280;10083;51.038;7.012;2022-10-31T08:33:27;113172.34;;;13.15;76.24
19845;BME280;10083;51.038;7.012;2022-10-31T08:36:23;113021.56;;;13.17;76.25
19845;BME280;10083;51.038;7.012;2022-10-31T08:39:07;112899.72;;;13.25;76.25
19845;BME280;10083;51.038;7.012;2022-10-31T08:41:36;112952.72;;;13.35;76.26
19845;BME280;10083;51.038;7.012;2022-10-31T08:44:06;112794.00;;;13.38;76.26
19845;BME280;10083;51.038;7.012;2022-10-31T08:46:45;112632.13;;;13.44;76.27
19845;BME280;10083;51.038;7.012;2022-10-31T08:49:13;112525.56;;;13.58;76.29
19845;BME280;10083;51.038;7.012;2022-10-31T08:51:48;112461.78;;;13.59;76.29
19845;BME280;10083;51.038;7.012;2022-10-31T08:54:16;112278.88;;;13.75;76.30
19845;BME280;10083;51.038;7.012;2022-10-31T08:57:03;112103.91;;;13.72;76.30
19845;BME280;10083;51.038;7.012;2022-10-31T08:59:40;111782.00;;;13.98;76.31
19845;BME280;10083;51.038;7.012;2022-10-31T09:02:22;111774.31;;;14.01;76.32
19845;BME280;10083;51.038;7.012;2022-10-31T09:05:00;111507.91;;;14.15;76.34
19845;BME280;10083;51.038;7.012;2022-10-31T09:07:29;111441.97;;;14.20;76.34
19845;BME280;10083;51.038;7.012;2022-10-31T09:10:01;111085.00;;;14.36;76.36
19845;BME280;10083;51.038;7.012;2022-10-31T09:12:31;111023.44;;;14.34;76.35
19845;BME280;10083;51.038;7.012;2022-10-31T09:15:17;110901.53;;;14.38;76.36
19845;BME280;10083;51.038;7.012;2022-10-31T09:17:52;110782.72;;;14.68;76.39
19845;BME280;10083;51.038;7.012;2022-10-31T09:20:31;110581.03;;;14.68;76.40
19845;BME280;10083;51.038;7.012;2022-10-31T09:23:01;110336.22;;;14.62;76.39
19845;BME280;10083;51.038;7.012;2022-10-31T09:25:30;109919.88;;;14.76;76.40
19845;BME280;10083;51.038;7.012;2022-10-31T09:28:24;109531.75;;;14.76;76.41
19845;BME280;10083;51.038;7.012;2022-10-31T09:30:53;109296.78;;;14.86;76.41
19845;BME280;10083;51.038;7.012;2022-10-31T09:33:41;108990.69;;;15.08;76.44
19845;BME280;10083;51.038;7.012;2022-10-31T09:36:27;108851.91;;;15.07;76.44
19845;BME280;10083;51.038;7.012;2022-10-31T09:38:56;108655.13;;;15.13;76.45
19845;BME280;10083;51.038;7.012;2022-10-31T09:41:30;108281.72;;;15.30;76.47
19845;BME280;10083;51.038;7.012;2022-10-31T09:44:07;108009.97;;;15.35;76.46
19845;BME280;10083;51.038;7.012;2022-10-31T09:47:00;107614.09;;;15.45;76.47
19845;BME280;10083;51.038;7.012;2022-10-31T09:49:42;107401.41;;;15.44;76.49
19845;BME280;10083;51.038;7.012;2022-10-31T09:52:27;107130.47;;;15.50;76.49
19845;BME280;10083;51.038;7.012;2022-10-31T09:55:03;106765.78;;;15.70;76.51
19845;BME280;10083;51.038;7.012;2022-10-31T09:57:46;106290.94;;;15.95;76.53
19845;BME280;10083;51.038;7.012;2022-10-31T10:00:17;105944.38;;;16.09;76.55
19845;BME280;10083;51.038;7.012;2022-10-31T10:02:48;105381.78;;;16.45;76.56
19845;BME280;10083;51.038;7.012;2022-10-31T10:05:21;105002.22;;;16.55;76.59
19845;BME280;10083;51.038;7.012;2022-10-31T10:07:55;104494.66;;;16.85;76.62
19845;BME280;10083;51.038;7.012;2022-10-31T10:11:22;103681.44;;;17.27;76.67
19845;BME280;10083;51.038;7.012;2022-10-31T10:14:16;103026.56;;;17.42;76.70
19845;BME280;10083;51.038;7.012;2022-10-31T10:16:57;102653.22;;;17.62;76.72
19845;BME280;10083;51.038;7.012;2022-10-31T10:19:53;102052.09;;;17.78;76.76
19845;BME280;10083;51.038;7.012;2022-10-31T10:22:29;101291.22;;;18.05;76.78
19845;BME280;10083;51.038;7.012;2022-10-31T10:25:15;100455.84;;;18.44;76.84
19845;BME280;10083;51.038;7.012;2022-10-31T10:28:30;99382.06;;;19.12;76.92
19845;BME280;10083;51.038;7.012;2022-10-31T10:31:07;98920.56;;;19.14;76.96
19845;BME280;10083;51.038;7.012;2022-10-31T10:33:54;97845.06;;;19.73;77.03
19845;BME280;10083;51.038;7.012;2022-10-31T10:36:27;97339.06;;;19.80;77.10
19845;BME280;10083;51.038;7.012;2022-10-31T10:38:59;96815.66;;;19.89;77.17
19845;BME280;10083;51.038;7.012;2022-10-31T10:41:31;96259.66;;;20.04;77.26
19845;BME280;10083;51.038;7.012;2022-10-31T10:44:24;96188.56;;;19.81;77.34
19845;BME280;10083;51.038;7.012;2022-10-31T10:47:08;96051.34;;;19.72;77.52
19845;BME280;10083;51.038;7.012;2022-10-31T10:49:54;95757.78;;;19.68;77.79
19845;BME280;10083;51.038;7.012;2022-10-31T10:52:32;96828.06;;;19.62;94.32
19845;BME280;10083;51.038;7.012;2022-10-31T10:55:09;96151.41;;;19.88;98.08
19845;BME280;10083;51.038;7.012;2022-10-31T10:57:49;95710.84;;;19.99;100.00
19845;BME280;10083;51.038;7.012;2022-10-31T11:00:23;95436.38;;;20.01;100.00
19845;BME280;10083;51.038;7.012;2022-10-31T11:02:52;95231.16;;;20.23;100.00
19845;BME280;10083;51.038;7.012;2022-10-31T11:05:24;95397.38;;;20.13;100.00
19845;BME280;10083;51.038;7.012;2022-10-31T11:08:04;95376.44;;;20.32;100.00
19845;BME280;10083;51.038;7.012;2022-10-31T11:10:31;95680.00;;;20.18;100.00
19845;BME280;10083;51.038;7.012;2022-10-31T11:13:21;95951.06;;;20.03;100.00
19845;BME280;10083;51.038;7.012;2022-10-31T11:15:54;95955.41;;;20.17;100.00
19845;BME280;10083;51.038;7.012;2022-10-31T11:18:24;96008.88;;;20.37;100.00
19845;BME280;10083;51.038;7.012;2022-10-31T11:20:55;96098.94;;;20.47;100.00
19845;BME280;10083;51.038;7.012;2022-10-31T11:23:24;96394.28;;;20.26;100.00
19845;BME280;10083;51.038;7.012;2022-10-31T11:25:55;96257.63;;;20.59;100.00
19845;BME280;10083;51.038;7.012;2022-10-31T11:28:22;96303.22;;;20.96;100.00
19845;BME280;10083;51.038;7.012;2022-10-31T11:30:55;96332.06;;;21.37;100.00
19845;BME280;10083;51.038;7.012;2022-10-31T11:33:28;96453.53;;;21.44;100.00
19845;BME280;10083;51.038;7.012;2022-10-31T11:35:57;96379.97;;;21.64;100.00
19845;BME280;10083;51.038;7.012;2022-10-31T11:38:29;96744.38;;;21.34;100.00
19845;BME280;10083;51.038;7.012;2022-10-31T11:41:10;96805.34;;;21.46;100.00
19845;BME280;10083;51.038;7.012;2022-10-31T11:43:54;97120.09;;;21.05;100.00
19845;BME280;10083;51.038;7.012;2022-10-31T11:46:44;97115.22;;;21.00;100.00
19845;BME280;10083;51.038;7.012;2022-10-31T11:49:18;97412.56;;;20.49;100.00
19845;BME280;10083;51.038;7.012;2022-10-31T11:52:20;97068.84;;;21.08;100.00
19845;BME280;10083;51.038;7.012;2022-10-31T11:54:57;96908.06;;;21.59;100.00
19845;BME280;10083;51.038;7.012;2022-10-31T11:57:27;96325.59;;;23.03;100.00
19845;BME280;10083;51.038;7.012;2022-10-31T12:00:22;96707.13;;;22.48;100.00
19845;BME280;10083;51.038;7.012;2022-10-31T12:03:03;96367.09;;;23.36;100.00
19845;BME280;10083;51.038;7.012;2022-10-31T12:05:32;96499.91;;;23.24;100.00
19845;BME280;10083;51.038;7.012;2022-10-31T12:08:01;96300.31;;;23.75;100.00
19845;BME280;10083;51.038;7.012;2022-10-31T12:10:34;96443.41;;;23.56;100.00
19845;BME280;10083;51.038;7.012;2022-10-31T12:13:37;96091.09;;;24.55;100.00
19845;BME280;10083;51.038;7.012;2022-10-31T12:16:15;96738.50;;;23.36;100.00
19845;BME280;10083;51.038;7.012;2022-10-31T12:18:56;96513.75;;;23.85;100.00
19845;BME280;10083;51.038;7.012;2022-10-31T12:21:50;96519.63;;;23.88;100.00
19845;BME280;10083;51.038;7.012;2022-10-31T12:24:33;96554.94;;;23.90;100.00
19845;BME280;10083;51.038;7.012;2022-10-31T12:27:28;96765.84;;;23.23;100.00
19845;BME280;10083;51.038;7.012;2022-10-31T12:30:17;96585.09;;;24.02;100.00
19845;BME280;10083;51.038;7.012;2022-10-31T12:33:34;96815.00;;;22.70;100.00
19845;BME280;10083;51.038;7.012;2022-10-31T12:36:15;96741.75;;;23.71;100.00
19845;BME280;10083;51.038;7.012;2022-10-31T12:42:01;96912.03;;;23.52;100.00
19845;BME280;10083;51.038;7.012;2022-10-31T12:44:56;97047.91;;;23.10;100.00
19845;BME280;10083;51.038;7.012;2022-10-31T12:47:59;97096.66;;;22.72;100.00
19845;BME280;10083;51.038;7.012;2022-10-31T12:50:39;97221.03;;;22.88;100.00
19845;BME280;10083;51.038;7.012;2022-10-31T12:53:43;97332.81;;;23.03;100.00
19845;BME280;10083;51.038;7.012;2022-10-31T12:56:24;97341.84;;;22.75;100.00
19845;BME280;10083;51.038;7.012;2022-10-31T12:59:00;97286.88;;;22.15;100.00
19845;BME280;10083;51.038;7.012;2022-10-31T13:01:40;97812.00;;;22.16;100.00
19845;BME280;10083;51.038;7.012;2022-10-31T13:04:15;112521.00;;;21.97;100.00
19845;BME280;10083;51.038;7.012;2022-10-31T13:06:49;112302.56;;;21.53;100.00
19845;BME280;10083;51.038;7.012;2022-10-31T13:09:35;112026.47;;;21.29;100.00
19845;BME280;10083;51.038;7.012;2022-10-31T13:12:07;111908.09;;;21.46;100.00
19845;BME280;10083;51.038;7.012;2022-10-31T13:14:49;111714.72;;;21.52;100.00
19845;BME280;10083;51.038;7.012;2022-10-31T13:17:24;111451.03;;;21.12;100.00
19845;BME280;10083;51.038;7.012;2022-10-31T13:20:29;111192.88;;;20.99;100.00
19845;BME280;10083;51.038;7.012;2022-10-31T13:23:08;110927.78;;;20.77;100.00
19845;BME280;10083;51.038;7.012;2022-10-31T13:25:42;110736.47;;;20.84;100.00
19845;BME280;10083;51.038;7.012;2022-10-31T13:28:26;110559.53;;;21.09;100.00
19845;BME280;10083;51.038;7.012;2022-10-31T13:31:01;110446.03;;;21.43;100.00
19845;BME280;10083;51.038;7.012;2022-10-31T13:33:34;110222.09;;;21.33;100.00
19845;BME280;10083;51.038;7.012;2022-10-31T13:36:11;109967.28;;;21.34;100.00
19845;BME280;10083;51.038;7.012;2022-10-31T13:38:49;109572.63;;;21.14;100.00
19845;BME280;10083;51.038;7.012;2022-10-31T13:41:40;109324.53;;;21.18;100.00
19845;BME280;10083;51.038;7.012;2022-10-31T13:44:14;109028.47;;;21.00;100.00
19845;BME280;10083;51.038;7.012;2022-10-31T13:46:45;108808.06;;;20.82;100.00